Airfield :
LOGIN :

Register | Disclaimer

   EN    FR    IT 

 










Legend :    VFR   Marginal VFR   IFR   Intensive IFR   Very Intensive IFR
Visi :
Ceiling :
>= 8 km
>= 3000ft
5 to 8 km
1000 to 3000 ft
1500m to 5 km
500 to 1000 ft
800 to 1500m
200 to 500 ft
< 800m
< 200 ft
Symbols :   Thunderstorms  Fog  Heavy snow  Heavy precipitations  Wind > 20 kt
SIGMETs :     Misc.  Thunderstorms  Icing  Turbulence  Mountain Waves  Volcanic Ashes







- Airport Elevation : 53 ft
- IATA code : HRT


EGXU - RAF Linton-on-Ouse

CURRENT METAR :
  • 201650Z AUTO 08014KT 9999 // FEW016/// BKN023/// 05/04 Q1012

EXPIRED METARs :
  • 201619Z 10015G30KT 4000 SHRA SCT018 OVC025 06/03 Q1012 GRN TEMPO 9999 NSW FEW018 BLU
  • 201550Z 07017KT 9999 -SHRA SCT020 OVC050 06/04 Q1011 WHT TEMPO 5000 SHRA WHT
  • 201450Z 05015KT 9999 SCT026 BKN100 06/04 Q1012 RESHRA BLU TEMPO 07015G25KT 6000 SHRA SCT023 WHT

TAF TAF EGXU
Valid from the 20 at 15:00 until the 20 at 19:00 UTC


201316Z 2015/2019 05012KT 9999 FEW018 BKN035
TEMPO 2015/2019 07015G26KT 5000 SHRA SCT018TCU
PROB40
TEMPO 2015/2019 4000 +SHRA BKN014CB
No reported NOTAMs for that airfield.
1 SIGMET reported for the London FIR (EGTT) :
 
Severe mountain waves
EGTT SIGMET 03 VALID 201700/202100 EGRR
EGTT LONDON FIR SEV MTW FCST WI N5500 W00220 - N5322 W00134 - N5158 W00304 - N5149 W00510 - N5500 W00447 - N5500 W00220 FL030/120 MOV N 10KT NC=



MET'MAP, your aeronautical weather chart ! - Copyright ORBIFLY December 2007 - Disclaimer

ORBIFLY MET'MAP TEAM :

Programming & Development : Alexandra Zaïnal
Concept & Development : Baudouin d'Aumeries
Co-Development & Prog : Marc-Olivier Méhu
Technical & hardware support : Manuel Goepfert

Contact : metmap@orbifly.com




SOURCES & CREDITS :

   NOAA